Time;durP1;ratioP1;P1;durP2;ratioP2;P2;SDS_P1;SDS_P2;PMS_P1;PMS_P2;Temp;Humidity;BMP_temperature;BMP_pressure;BME280_temperature;BME280_humidity;BME280_pressure;Samples;Min_cycle;Max_cycle;Signal;HPM_P1;HPM_P2
2021/08/04 00:00:50;;;;;;;2.55;0.90;;;;;;;28.47;37.28;96447.88;5026915;28;20045;-31
2021/08/04 00:03:15;;;;;;;4.60;1.15;;;;;;;28.47;37.37;96447.88;5028396;28;20033;-34
2021/08/04 00:05:41;;;;;;;2.53;1.13;;;;;;;28.48;37.34;96449.56;5030301;28;20617;-32
2021/08/04 00:08:06;;;;;;;4.95;1.30;;;;;;;28.47;37.34;96458.44;5024880;28;20083;-34
2021/08/04 00:10:31;;;;;;;3.50;0.82;;;;;;;28.46;37.42;96449.69;5046040;28;20468;-35
2021/08/04 00:12:57;;;;;;;3.42;0.82;;;;;;;28.46;37.26;96441.78;5028930;28;20041;-33
2021/08/04 00:15:22;;;;;;;3.25;0.90;;;;;;;28.47;37.38;96443.47;5013763;28;20029;-30
2021/08/04 00:17:48;;;;;;;3.85;1.00;;;;;;;28.48;37.37;96449.56;5029662;28;20618;-33
2021/08/04 00:20:13;;;;;;;2.72;0.77;;;;;;;28.47;37.32;96447.88;5031295;28;20067;-30
2021/08/04 00:22:39;;;;;;;2.35;1.00;;;;;;;28.46;37.39;96449.69;5030933;28;20290;-33
2021/08/04 00:25:04;;;;;;;5.60;0.80;;;;;;;28.47;37.39;96447.88;5028812;28;20315;-37
2021/08/04 00:27:30;;;;;;;0.82;0.70;;;;;;;28.46;37.38;96448.84;5041652;28;20059;-31
2021/08/04 00:29:55;;;;;;;2.90;0.82;;;;;;;28.47;37.45;96447.88;5024119;28;20041;-34
2021/08/04 00:32:21;;;;;;;1.40;0.73;;;;;;;28.46;37.36;96446.19;5030086;28;20100;-34
2021/08/04 00:34:46;;;;;;;4.47;0.77;;;;;;;28.45;37.26;96440.06;5026189;28;20099;-35
2021/08/04 00:37:12;;;;;;;2.38;0.90;;;;;;;28.45;37.34;96442.72;5026700;28;20176;-35
2021/08/04 00:39:37;;;;;;;2.25;0.95;;;;;;;28.46;37.40;96446.19;5029869;28;20559;-32
2021/08/04 00:42:03;;;;;;;1.08;0.77;;;;;;;28.46;37.25;96447.06;5027602;28;20037;-33
2021/08/04 00:44:28;;;;;;;5.05;1.17;;;;;;;28.47;37.46;96447.88;5023309;28;20091;-35
2021/08/04 00:46:54;;;;;;;2.85;1.00;;;;;;;28.46;37.56;96447.06;5023493;28;20030;-31
2021/08/04 00:49:19;;;;;;;2.33;0.93;;;;;;;28.46;37.46;96449.69;5023311;28;20483;-33
2021/08/04 00:51:45;;;;;;;2.25;0.85;;;;;;;28.46;37.33;96441.78;5026545;28;20033;-32
2021/08/04 00:54:10;;;;;;;1.60;0.73;;;;;;;28.47;37.32;96445.25;5028970;28;20516;-34
2021/08/04 00:56:35;;;;;;;2.92;0.82;;;;;;;28.47;37.33;96454.00;5028161;28;20038;-30
2021/08/04 00:59:01;;;;;;;2.78;0.82;;;;;;;28.46;37.24;96440.94;5028531;28;20048;-33
2021/08/04 01:01:49;;;;;;;5.07;1.00;;;;;;;28.47;37.33;96442.63;5042622;28;20025;-35
2021/08/04 01:04:30;;;;;;;2.50;1.08;;;;;;;28.46;37.39;96431.25;5041673;28;20718;-32
2021/08/04 01:07:10;;;;;;;2.08;0.70;;;;;;;28.46;37.48;96425.13;5023782;28;20040;-34
2021/08/04 01:09:49;;;;;;;1.67;1.00;;;;;;;28.47;37.48;96417.13;5029137;28;20807;-31
2021/08/04 01:12:36;;;;;;;2.42;0.90;;;;;;;28.47;37.40;96421.53;5022282;28;20029;-32
2021/08/04 01:15:04;;;;;;;1.50;0.88;;;;;;;28.47;37.54;96421.53;5031341;28;20534;-35
2021/08/04 01:17:29;;;;;;;1.77;0.80;;;;;;;28.44;37.48;96404.13;5025782;28;20040;-35
2021/08/04 01:20:11;;;;;;;3.20;0.98;;;;;;;28.46;37.30;96411.94;5028094;28;20026;-37
2021/08/04 01:22:58;;;;;;;1.52;0.70;;;;;;;28.46;37.30;96411.94;5026557;28;20068;-32
2021/08/04 01:25:50;;;;;;;2.22;0.80;;;;;;;28.46;37.30;96411.94;5022975;28;20566;-34
2021/08/04 01:28:46;;;;;;;0.88;0.63;;;;;;;28.44;37.53;96422.59;5027310;28;20051;-33
2021/08/04 01:31:13;;;;;;;7.47;0.90;;;;;;;28.44;37.46;96433.13;5019067;28;20408;-30
2021/08/04 01:33:43;;;;;;;1.10;0.80;;;;;;;28.45;37.60;96433.97;5040545;28;20040;-35
2021/08/04 01:36:09;;;;;;;1.25;0.70;;;;;;;28.43;37.50;96420.91;5025420;28;20033;-35
2021/08/04 01:38:34;;;;;;;1.52;0.90;;;;;;;28.44;37.51;96425.22;5025181;28;20650;-34
2021/08/04 01:41:00;;;;;;;1.60;0.77;;;;;;;28.39;37.38;96412.38;5022300;28;20106;-31
2021/08/04 01:43:25;;;;;;;5.57;0.82;;;;;;;28.43;37.58;96421.75;5025794;28;20036;-36
2021/08/04 01:45:52;;;;;;;0.90;0.70;;;;;;;28.45;37.31;96423.44;5027460;28;20029;-32
2021/08/04 01:48:18;;;;;;;1.48;0.90;;;;;;;28.43;37.36;96413.00;5028444;28;20404;-33
2021/08/04 01:50:43;;;;;;;1.55;0.90;;;;;;;28.43;37.59;96413.84;5041002;28;20029;-34
2021/08/04 01:53:09;;;;;;;1.20;0.65;;;;;;;28.46;37.55;96411.94;5023755;28;20025;-32
2021/08/04 01:55:34;;;;;;;1.20;0.70;;;;;;;28.44;37.53;96409.41;5021905;28;20634;-33
2021/08/04 01:58:00;;;;;;;1.50;0.73;;;;;;;28.45;37.50;96410.25;5022681;28;20451;-33
2021/08/04 02:00:42;;;;;;;1.55;0.90;;;;;;;-148.56;100.00;61375.16;5028126;28;20048;-36
2021/08/04 02:04:06;;;;;;;1.30;0.82;;;;;;;-148.56;100.00;61375.16;5042031;28;20590;-35
2021/08/04 02:07:51;;;;;;;1.10;0.73;;;;;;;-148.56;100.00;61375.16;5022570;28;20037;-32
2021/08/04 02:11:16;;;;;;;0.65;0.63;;;;;;;-148.56;100.00;61375.16;5025033;28;20028;-33
2021/08/04 02:14:26;;;;;;;1.50;0.77;;;;;;;28.45;37.50;96410.25;5028877;28;20021;-31
2021/08/04 02:17:04;;;;;;;1.33;0.80;;;;;;;-148.56;100.00;61375.16;5033445;28;20196;-32
2021/08/04 02:19:48;;;;;;;1.60;0.60;;;;;;;-148.56;100.00;61375.16;5021514;28;20584;-31
2021/08/04 02:22:17;;;;;;;0.88;0.60;;;;;;;-148.56;100.00;61375.16;5023974;28;20036;-34
2021/08/04 02:24:48;;;;;;;2.05;0.68;;;;;;;-148.56;100.00;61375.16;5025732;28;20063;-34
2021/08/04 02:27:14;;;;;;;;;;;;;;;-148.56;100.00;61375.16;5019095;28;20747;-34
2021/08/04 02:29:39;;;;;;;1.48;0.60;;;;;;;-148.56;100.00;61375.16;5027031;28;19912;-36
2021/08/04 02:32:05;;;;;;;2.83;0.85;;;;;;;-148.56;100.00;61375.16;5013697;28;20040;-34
2021/08/04 02:34:30;;;;;;;1.80;0.70;;;;;;;-148.56;100.00;61375.16;5028044;28;20124;-37
2021/08/04 02:36:56;;;;;;;1.75;0.70;;;;;;;-148.56;100.00;61375.16;5020832;28;20033;-34
2021/08/04 02:39:21;;;;;;;0.88;0.50;;;;;;;-148.56;100.00;61375.16;5025258;28;20025;-32
2021/08/04 02:41:47;;;;;;;0.77;0.68;;;;;;;-148.56;100.00;61375.16;5030949;28;20025;-32
2021/08/04 02:44:15;;;;;;;1.20;0.60;;;;;;;-148.56;100.00;61375.16;5027574;28;20844;-31
2021/08/04 02:46:42;;;;;;;3.10;0.63;;;;;;;-148.56;100.00;61375.16;5024436;28;20028;-33
2021/08/04 02:49:07;;;;;;;2.30;0.80;;;;;;;-148.56;100.00;61375.16;5027805;28;20497;-34
2021/08/04 02:51:51;;;;;;;2.85;0.70;;;;;;;-148.56;37.50;61375.16;5025808;28;20040;-33
2021/08/04 02:54:19;;;;;;;3.40;0.65;;;;;;;28.52;37.45;96388.63;5013377;28;21851;-31
2021/08/04 02:57:16;;;;;;;2.08;0.70;;;;;;;28.52;37.45;96388.63;5022830;28;20056;-32
2021/08/04 02:59:42;;;;;;;1.90;0.63;;;;;;;28.52;37.39;96386.00;5027592;28;20056;-32
2021/08/04 03:02:07;;;;;;;5.18;0.93;;;;;;;28.51;37.47;96388.72;5019537;28;20029;-34
2021/08/04 03:05:17;;;;;;;2.20;0.57;;;;;;;-148.56;32.07;61375.16;5026738;28;20492;-34
2021/08/04 03:07:43;;;;;;;0.60;0.60;;;;;;;28.52;37.30;96393.03;5026008;28;20076;-32
2021/08/04 03:10:09;;;;;;;1.23;0.70;;;;;;;28.50;37.44;96385.28;5026073;28;20024;-31
2021/08/04 03:12:34;;;;;;;1.40;0.60;;;;;;;28.48;37.58;96392.44;5019186;28;20034;-30
2021/08/04 03:14:59;;;;;;;2.60;0.85;;;;;;;28.48;37.66;96396.84;5028571;28;20033;-28
2021/08/04 03:17:25;;;;;;;3.50;0.60;;;;;;;28.49;37.47;96394.09;5026357;28;20017;-36
2021/08/04 03:19:50;;;;;;;2.72;0.75;;;;;;;28.47;37.60;96390.75;5023707;28;20033;-30
2021/08/04 03:22:15;;;;;;;0.95;0.50;;;;;;;28.45;37.63;96386.53;5026246;28;20029;-34
2021/08/04 03:24:41;;;;;;;1.13;0.55;;;;;;;28.48;37.67;96396.84;5022585;28;20061;-34
2021/08/04 03:27:06;;;;;;;1.45;0.88;;;;;;;28.46;37.65;96396.13;5023762;28;20301;-32
2021/08/04 03:29:32;;;;;;;1.45;0.60;;;;;;;28.46;37.45;96396.13;5024521;28;20029;-34
2021/08/04 03:31:57;;;;;;;0.88;0.63;;;;;;;28.46;37.65;96394.34;5026743;28;20021;-34
2021/08/04 03:34:22;;;;;;;0.73;0.60;;;;;;;28.46;37.80;96383.81;5023438;28;20481;-35
2021/08/04 03:36:48;;;;;;;1.25;0.80;;;;;;;28.45;37.58;96386.53;5023945;28;20065;-34
2021/08/04 03:39:13;;;;;;;1.60;0.68;;;;;;;28.45;37.28;96381.28;5023009;28;20532;-33
2021/08/04 03:41:38;;;;;;;1.98;0.52;;;;;;;28.47;37.67;96384.63;5024210;28;20079;-32
2021/08/04 03:44:04;;;;;;;1.00;0.70;;;;;;;28.47;37.61;96385.47;5025837;28;20033;-36
2021/08/04 03:46:30;;;;;;;1.25;0.70;;;;;;;28.47;37.28;96387.25;5025555;28;20087;-34
2021/08/04 03:48:55;;;;;;;0.65;0.50;;;;;;;28.47;37.67;96384.63;5025595;28;20103;-32
2021/08/04 03:51:20;;;;;;;0.70;0.52;;;;;;;28.46;37.57;96390.84;5020898;28;20025;-33
2021/08/04 03:53:46;;;;;;;1.67;0.70;;;;;;;28.46;37.55;96382.94;5018364;28;20037;-34
2021/08/04 03:56:11;;;;;;;3.22;0.57;;;;;;;28.47;37.70;96389.91;5019124;28;20033;-32
2021/08/04 03:58:36;;;;;;;3.33;0.77;;;;;;;28.45;37.57;96386.53;5024504;28;20029;-31
2021/08/04 04:01:02;;;;;;;0.40;0.40;;;;;;;28.45;37.64;96391.81;5023397;28;20029;-33
2021/08/04 04:03:27;;;;;;;4.55;1.35;;;;;;;28.46;37.49;96388.22;5023012;28;20091;-34
2021/08/04 04:05:53;;;;;;;1.00;0.55;;;;;;;28.45;37.50;96392.63;5030378;28;20022;-33
2021/08/04 04:08:18;;;;;;;1.63;0.70;;;;;;;28.47;37.61;96401.28;5025084;28;20029;-34
2021/08/04 04:10:43;;;;;;;1.58;0.80;;;;;;;28.46;37.69;96398.75;5028766;28;20037;-30
2021/08/04 04:13:10;;;;;;;4.32;0.80;;;;;;;28.47;37.71;96395.16;5021677;28;20634;-30
2021/08/04 04:15:52;;;;;;;2.45;0.77;;;;;;;28.47;37.71;96395.16;5026640;28;20040;-31
2021/08/04 04:18:22;;;;;;;4.75;0.65;;;;;;;28.47;37.71;96395.16;5025560;28;20025;-36
2021/08/04 04:20:49;;;;;;;3.50;0.75;;;;;;;28.47;37.50;96405.72;5028901;28;20038;-35
2021/08/04 04:23:15;;;;;;;0.70;0.70;;;;;;;28.46;37.42;96390.84;5028191;28;20037;-33
2021/08/04 04:25:40;;;;;;;2.05;0.90;;;;;;;28.46;37.57;96388.22;5026867;28;20462;-35
2021/08/04 04:28:06;;;;;;;2.60;0.90;;;;;;;28.45;37.35;96392.63;5029445;28;20040;-29
2021/08/04 04:30:37;;;;;;;2.70;1.27;;;;;;;28.45;37.35;96392.63;5023540;28;20029;-31
2021/08/04 04:33:02;;;;;;;3.65;0.90;;;;;;;28.43;37.58;96398.03;5029060;28;20065;-34
2021/08/04 04:35:27;;;;;;;2.67;0.80;;;;;;;28.48;37.42;96396.84;5024290;28;20098;-33
2021/08/04 04:38:46;;;;;;;1.77;0.80;;;;;;;-148.56;nan;61375.16;5027894;28;20021;-34
2021/08/04 04:41:11;;;;;;;1.75;0.70;;;;;;;28.46;37.56;96390.84;5023885;28;20037;-33
2021/08/04 04:43:38;;;;;;;2.20;1.05;;;;;;;28.43;37.58;96398.03;5028476;28;20036;-32
2021/08/04 04:46:07;;;;;;;0.98;0.68;;;;;;;28.43;37.58;96398.03;5028178;28;20116;-29
2021/08/04 04:48:33;;;;;;;1.25;0.70;;;;;;;28.42;37.64;96398.97;5025218;28;20527;-31
2021/08/04 04:50:58;;;;;;;0.68;0.60;;;;;;;28.41;37.50;96399.94;5025938;28;20033;-32
2021/08/04 04:53:23;;;;;;;1.88;0.60;;;;;;;28.45;37.46;96397.91;5027169;28;20024;-32
2021/08/04 04:55:49;;;;;;;4.05;0.93;;;;;;;28.41;37.43;96405.19;5028779;28;20040;-33
2021/08/04 04:58:14;;;;;;;2.22;0.70;;;;;;;28.42;37.47;96406.88;5025607;28;20393;-34
2021/08/04 05:00:39;;;;;;;4.47;0.80;;;;;;;28.42;37.43;96414.78;5028016;28;20045;-32
2021/08/04 05:03:05;;;;;;;0.57;0.52;;;;;;;28.41;37.76;96413.09;5025941;28;20037;-33
2021/08/04 05:05:30;;;;;;;2.15;0.60;;;;;;;28.42;37.51;96409.50;5028523;28;20088;-35
2021/08/04 05:07:56;;;;;;;3.55;0.80;;;;;;;28.42;37.57;96417.41;5031153;28;20500;-32
2021/08/04 05:10:21;;;;;;;1.10;0.80;;;;;;;28.41;37.63;96417.53;5026076;28;20029;-35
2021/08/04 05:12:46;;;;;;;3.72;0.82;;;;;;;28.41;37.56;96418.38;5022211;28;20029;-33
2021/08/04 05:15:12;;;;;;;0.70;0.52;;;;;;;28.42;37.37;96420.06;5025821;28;20032;-33
2021/08/04 05:18:21;;;;;;;1.63;0.63;;;;;;;;;;5025321;28;20378;-36
2021/08/04 05:20:46;;;;;;;2.33;0.68;;;;;;;28.42;37.50;96414.78;5024412;28;20557;-33
2021/08/04 05:23:11;;;;;;;1.90;0.60;;;;;;;28.42;37.52;96419.22;5031323;28;20052;-36
2021/08/04 05:25:38;;;;;;;3.95;0.75;;;;;;;28.42;37.47;96421.88;5027784;28;20036;-34
2021/08/04 05:28:03;;;;;;;1.27;0.65;;;;;;;28.41;37.46;96417.53;5026075;28;20548;-29
2021/08/04 05:30:29;;;;;;;0.93;0.60;;;;;;;28.41;37.55;96420.16;5024758;28;20116;-33
2021/08/04 05:32:54;;;;;;;1.80;0.70;;;;;;;28.41;37.64;96423.66;5025150;28;20038;-33
2021/08/04 05:35:19;;;;;;;0.68;0.47;;;;;;;28.41;37.69;96418.38;5026411;28;20029;-31
2021/08/04 05:37:45;;;;;;;0.70;0.50;;;;;;;28.41;37.61;96423.66;5023803;28;20087;-29
2021/08/04 05:40:11;;;;;;;1.10;0.60;;;;;;;28.41;37.54;96421.00;5025269;28;20037;-33
2021/08/04 05:42:36;;;;;;;1.60;0.50;;;;;;;28.40;37.57;96421.13;5029366;28;20405;-32
2021/08/04 05:45:01;;;;;;;1.25;0.70;;;;;;;28.42;37.64;96419.22;5021846;28;20028;-32
2021/08/04 05:47:27;;;;;;;1.30;0.70;;;;;;;28.42;37.69;96421.88;5025309;28;20400;-36
2021/08/04 05:49:52;;;;;;;0.93;0.60;;;;;;;28.41;37.51;96415.75;5028188;28;21132;-35
2021/08/04 05:52:17;;;;;;;2.08;0.85;;;;;;;28.41;37.56;96418.38;5023441;28;20033;-27
2021/08/04 05:54:43;;;;;;;0.88;0.65;;;;;;;28.42;37.66;96413.97;5024222;28;20033;-33
2021/08/04 05:57:08;;;;;;;1.80;0.77;;;;;;;28.42;37.30;96413.97;5027691;28;20026;-30
2021/08/04 05:59:34;;;;;;;2.10;0.60;;;;;;;28.41;37.59;96409.63;5027927;28;20029;-34
2021/08/04 06:01:59;;;;;;;1.80;0.70;;;;;;;28.41;37.44;96407.84;5025282;28;20033;-30
2021/08/04 06:04:25;;;;;;;0.75;0.60;;;;;;;28.42;37.48;96411.31;5032061;28;20037;-35
2021/08/04 06:06:50;;;;;;;0.75;0.70;;;;;;;28.42;37.65;96406.06;5021789;28;20075;-36
2021/08/04 06:09:15;;;;;;;0.55;0.50;;;;;;;28.43;37.70;96410.38;5022132;28;22242;-35
2021/08/04 06:11:41;;;;;;;0.50;0.50;;;;;;;28.42;37.58;96409.50;5024222;28;20436;-32
2021/08/04 06:14:06;;;;;;;1.42;0.47;;;;;;;28.42;37.60;96417.41;5021561;28;22945;-36
2021/08/04 06:16:32;;;;;;;0.65;0.47;;;;;;;28.42;37.49;96417.41;5027340;28;20037;-34
2021/08/04 06:18:57;;;;;;;1.63;0.52;;;;;;;28.42;37.54;96414.78;5037505;28;20117;-31
2021/08/04 06:21:26;;;;;;;1.33;0.70;;;;;;;28.42;37.37;96425.31;5040511;28;20206;-35
2021/08/04 06:23:51;;;;;;;3.97;0.50;;;;;;;28.43;37.58;96415.63;5028826;28;20040;-31
2021/08/04 06:26:17;;;;;;;0.85;0.60;;;;;;;28.43;37.67;96411.22;5022432;28;20723;-35
2021/08/04 06:28:43;;;;;;;1.95;0.57;;;;;;;28.42;37.62;96425.31;5023514;28;20029;-35
2021/08/04 06:31:08;;;;;;;0.75;0.50;;;;;;;28.43;37.70;96421.75;5023903;28;20036;-32
2021/08/04 06:33:33;;;;;;;3.80;0.68;;;;;;;28.42;37.76;96430.59;5026099;28;20440;-29
2021/08/04 06:35:59;;;;;;;7.03;1.00;;;;;;;28.43;37.85;96429.66;5023621;28;20112;-33
2021/08/04 06:38:24;;;;;;;5.38;1.30;;;;;;;28.43;37.63;96434.94;5022305;28;20133;-32
2021/08/04 06:40:50;;;;;;;14.27;2.13;;;;;;;28.43;37.25;96431.44;5026691;28;21134;-34
2021/08/04 06:43:17;;;;;;;4.43;1.65;;;;;;;28.41;35.97;96431.56;5021115;28;20040;-35
2021/08/04 06:45:42;;;;;;;8.68;2.20;;;;;;;28.37;35.12;96427.44;5025071;28;20120;-29
2021/08/04 06:48:09;;;;;;;7.30;2.00;;;;;;;28.32;34.34;96424.28;5019836;28;20037;-34
2021/08/04 06:50:35;;;;;;;6.00;2.00;;;;;;;28.25;34.24;96423.88;5023769;28;20025;-33
2021/08/04 06:53:00;;;;;;;7.50;2.28;;;;;;;28.21;34.47;96427.63;5022451;28;20390;-31
2021/08/04 06:55:26;;;;;;;5.80;2.08;;;;;;;28.17;34.46;96421.75;5025463;28;20030;-28
2021/08/04 06:57:51;;;;;;;4.65;2.05;;;;;;;28.14;34.10;96427.22;5020725;28;20737;-29
2021/08/04 07:00:16;;;;;;;4.60;2.05;;;;;;;28.11;34.48;96431.88;5022371;28;20265;-35
2021/08/04 07:02:42;;;;;;;4.35;2.05;;;;;;;28.09;33.99;96434.59;5041755;28;20017;-28
2021/08/04 07:05:08;;;;;;;4.93;2.20;;;;;;;28.09;33.71;96436.38;5041466;28;20029;-32
2021/08/04 07:07:35;;;;;;;6.53;2.10;;;;;;;28.07;33.66;96436.47;5040715;28;20021;-31
2021/08/04 07:10:01;;;;;;;4.30;2.22;;;;;;;28.05;33.47;96438.38;5042588;28;20036;-31
2021/08/04 07:12:26;;;;;;;3.63;2.20;;;;;;;28.05;33.23;96435.75;5045058;28;20036;-31
2021/08/04 07:14:54;;;;;;;3.90;1.90;;;;;;;28.03;33.12;96437.63;5043537;28;20037;-31
2021/08/04 07:17:19;;;;;;;6.82;1.92;;;;;;;28.00;33.19;96445.75;5045673;28;20025;-33
2021/08/04 07:19:44;;;;;;;3.05;1.80;;;;;;;27.97;33.00;96441.56;5043431;28;20029;-34
2021/08/04 07:22:10;;;;;;;6.97;2.22;;;;;;;27.96;32.81;96437.22;5041379;28;20031;-32
2021/08/04 07:24:36;;;;;;;2.35;1.70;;;;;;;27.95;32.87;96442.59;5043432;28;20012;-30
2021/08/04 07:27:01;;;;;;;5.40;2.22;;;;;;;27.92;33.00;96439.22;5037942;28;20121;-29
2021/08/04 07:29:26;;;;;;;8.07;2.17;;;;;;;27.91;32.86;96436.69;5043781;28;20032;-34
2021/08/04 07:31:52;;;;;;;6.43;2.20;;;;;;;27.89;32.81;96428.88;5041776;28;20031;-32
2021/08/04 07:34:22;;;;;;;5.45;1.85;;;;;;;27.88;32.64;96429.84;5042151;28;20033;-31
2021/08/04 07:36:48;;;;;;;3.45;1.90;;;;;;;27.88;32.60;96437.72;5038790;28;20040;-35
2021/08/04 07:39:13;;;;;;;4.40;2.03;;;;;;;27.87;32.50;96435.19;5047705;28;20028;-34
2021/08/04 07:41:39;;;;;;;9.32;2.25;;;;;;;27.85;32.27;96430.06;5047431;28;20081;-29
2021/08/04 07:44:04;;;;;;;2.78;1.90;;;;;;;27.82;31.79;96427.63;5029771;28;20218;-31
2021/08/04 07:46:30;;;;;;;2.35;1.40;;;;;;;27.81;32.05;96425.09;5046487;28;20033;-30
2021/08/04 07:48:55;;;;;;;3.80;1.88;;;;;;;27.78;32.17;96426.16;5045071;28;20033;-31
2021/08/04 07:51:21;;;;;;;3.00;1.73;;;;;;;27.76;32.19;96420.13;5046705;28;20029;-31
2021/08/04 07:53:46;;;;;;;3.25;1.98;;;;;;;27.74;32.03;96407.09;5046163;28;20752;-33
2021/08/04 07:56:12;;;;;;;4.40;1.85;;;;;;;27.72;32.04;96421.31;5045239;28;20483;-32
2021/08/04 07:58:37;;;;;;;5.35;1.80;;;;;;;27.70;32.12;96418.78;5044589;28;20039;-28
2021/08/04 08:01:02;;;;;;;2.38;1.80;;;;;;;27.69;32.19;96427.59;5044861;28;20102;-31
2021/08/04 08:03:28;;;;;;;2.58;1.90;;;;;;;27.67;32.31;96412.84;5039428;28;22152;-34
2021/08/04 08:05:53;;;;;;;3.63;1.63;;;;;;;27.67;32.26;96418.09;5045024;28;20040;-31
2021/08/04 08:08:18;;;;;;;6.03;1.63;;;;;;;27.65;32.31;96408.53;5048001;28;20025;-33
2021/08/04 08:10:46;;;;;;;2.13;1.60;;;;;;;27.64;32.12;96414.75;5044103;28;20567;-33
2021/08/04 08:13:12;;;;;;;5.38;1.80;;;;;;;27.64;32.12;96413.91;5045830;28;20492;-36
2021/08/04 08:15:37;;;;;;;18.75;2.70;;;;;;;27.63;32.22;96422.75;5038342;28;20033;-29
2021/08/04 08:18:12;;;;;;;12.18;2.20;;;;;;;27.59;31.87;96423.84;5042770;28;20028;-36
2021/08/04 08:20:37;;;;;;;9.27;1.80;;;;;;;27.52;31.41;96431.31;5044443;28;20632;-35
2021/08/04 08:23:03;;;;;;;2.88;1.90;;;;;;;27.45;31.60;96424.75;5046808;28;20032;-32
2021/08/04 08:25:59;;;;;;;7.15;2.20;;;;;;;-148.56;100.00;61375.16;5038903;28;20577;-32
2021/08/04 08:29:23;;;;;;;6.47;1.90;;;;;;;-148.56;100.00;61375.16;5044986;28;20571;-31
2021/08/04 08:32:48;;;;;;;5.47;2.60;;;;;;;-148.56;100.00;61375.16;5046756;28;20036;-30
2021/08/04 08:35:14;;;;;;;7.72;3.45;;;;;;;27.49;32.43;96436.78;5045629;28;20131;-31
2021/08/04 08:37:40;;;;;;;6.03;3.60;;;;;;;27.50;32.59;96443.75;5046990;28;20995;-29
2021/08/04 08:40:06;;;;;;;15.82;3.83;;;;;;;27.52;32.71;96436.59;5046488;28;20642;-33
2021/08/04 08:42:31;;;;;;;11.73;3.20;;;;;;;27.58;32.81;96441.44;5042059;28;20040;-28
2021/08/04 08:44:58;;;;;;;5.20;2.80;;;;;;;27.61;33.01;96443.91;5039283;28;20468;-31
2021/08/04 08:47:25;;;;;;;6.35;2.65;;;;;;;27.61;33.01;96443.91;5043812;28;20490;-32
2021/08/04 08:52:25;;;;;;;7.75;2.92;;;;;;;27.62;32.87;96414.00;5560352;22;20076;-75
2021/08/04 08:54:54;;;;;;;4.35;2.35;;;;;;;27.64;32.48;96409.50;5059471;27;20497;-76
2021/08/04 08:57:19;;;;;;;4.72;2.10;;;;;;;-148.56;100.00;61375.16;5059489;27;20538;-77
2021/08/04 09:00:09;;;;;;;4.65;2.47;;;;;;;-148.56;100.00;61375.16;5077059;27;20027;-77
2021/08/04 09:02:46;;;;;;;5.00;2.33;;;;;;;-148.56;100.00;61375.16;5093025;28;20056;-77
2021/08/04 09:05:13;;;;;;;4.95;2.10;;;;;;;27.68;32.02;96390.88;5072247;28;20066;-75
2021/08/04 09:07:44;;;;;;;6.82;2.00;;;;;;;27.68;32.02;96390.88;5064173;28;20039;-76
2021/08/04 09:10:33;;;;;;;2.75;2.08;;;;;;;27.71;31.99;96398.53;5093726;28;20027;-76
2021/08/04 09:13:00;;;;;;;2.78;1.90;;;;;;;27.70;31.86;96394.22;5077927;28;20043;-76
2021/08/04 09:15:34;;;;;;;4.70;2.03;;;;;;;27.69;32.05;96390.72;5061283;28;20028;-76
2021/08/04 09:18:13;;;;;;;5.72;1.80;;;;;;;27.60;32.14;96379.03;5056176;28;20330;-77
2021/08/04 09:20:54;;;;;;;4.40;1.92;;;;;;;27.72;32.35;96389.72;5092813;28;20105;-76
2021/08/04 09:23:24;;;;;;;2.15;1.63;;;;;;;27.72;32.44;96392.34;5100353;28;20181;-76
2021/08/04 09:26:06;;;;;;;7.80;1.90;;;;;;;27.73;32.62;96391.38;5092405;28;20039;-75
2021/08/04 09:28:56;;;;;;;4.22;1.85;;;;;;;27.73;32.37;96386.13;5092795;28;20405;-76
2021/08/04 09:31:41;;;;;;;5.07;2.03;;;;;;;27.75;32.35;96386.84;5071507;28;20686;-75
2021/08/04 09:34:34;;;;;;;2.13;1.73;;;;;;;27.76;32.30;96384.13;5089676;28;20027;-77
2021/08/04 09:38:04;;;;;;;5.15;1.70;;;;;;;-148.56;100.00;61375.16;5097748;28;20028;-78
2021/08/04 09:40:36;;;;;;;3.45;1.80;;;;;;;27.76;32.30;96384.13;5089336;28;20401;-76
2021/08/04 09:43:02;;;;;;;6.75;1.90;;;;;;;27.82;32.48;96384.66;5063913;28;20031;-76
2021/08/04 09:45:44;;;;;;;5.82;1.90;;;;;;;27.82;32.19;96376.75;5074016;28;20100;-77
2021/08/04 09:48:11;;;;;;;7.32;1.70;;;;;;;27.82;32.38;96385.50;5091351;28;20020;-77
2021/08/04 09:50:51;;;;;;;3.95;1.85;;;;;;;27.82;32.43;96388.13;5070190;28;20248;-76
2021/08/04 09:53:18;;;;;;;4.93;1.92;;;;;;;27.80;32.12;96374.22;5073335;28;20118;-73
2021/08/04 09:56:21;;;;;;;3.13;1.67;;;;;;;27.81;32.20;96372.44;5062906;28;20027;-73
2021/08/04 09:58:51;;;;;;;4.22;1.83;;;;;;;27.80;32.38;96376.84;5059975;28;20058;-75
2021/08/04 10:01:22;;;;;;;1.98;1.48;;;;;;;27.80;32.25;96373.38;5073296;28;20039;-76
2021/08/04 10:04:04;;;;;;;2.70;1.92;;;;;;;27.79;31.98;96375.16;5092036;28;20446;-76
2021/08/04 10:06:29;;;;;;;4.20;1.80;;;;;;;27.79;32.29;96372.53;5075237;28;20035;-76
2021/08/04 10:08:55;;;;;;;2.95;1.63;;;;;;;27.76;32.35;96364.84;5087010;28;20515;-75
2021/08/04 10:11:21;;;;;;;4.93;1.73;;;;;;;27.77;32.39;96366.53;5087767;28;20027;-74
2021/08/04 10:13:46;;;;;;;2.10;1.83;;;;;;;27.79;32.55;96372.53;5092646;28;20190;-76
2021/08/04 10:16:12;;;;;;;7.00;3.05;;;;;;;27.81;32.45;96356.63;5089786;28;20159;-76
2021/08/04 10:18:38;;;;;;;8.32;3.20;;;;;;;27.82;32.55;96356.53;5052450;28;20032;-75
2021/08/04 10:21:08;;;;;;;16.88;3.20;;;;;;;27.85;32.76;96343.16;5087952;27;20501;-76
2021/08/04 10:23:33;;;;;;;10.68;3.05;;;;;;;27.88;32.97;96353.47;5078176;28;20483;-77
2021/08/04 10:25:59;;;;;;;7.93;3.30;;;;;;;27.90;33.31;96351.59;5083295;28;20023;-76
2021/08/04 10:28:26;;;;;;;8.27;3.20;;;;;;;27.93;33.17;96350.53;5062546;28;20539;-76
2021/08/04 10:30:51;;;;;;;9.45;3.58;;;;;;;27.95;33.56;96348.63;5072583;28;20358;-75
2021/08/04 10:33:17;;;;;;;14.20;3.63;;;;;;;28.00;33.35;96335.16;5077337;28;20027;-76
2021/08/04 10:36:07;;;;;;;10.52;3.45;;;;;;;28.05;33.50;96343.56;5059135;28;20057;-74
2021/08/04 10:38:33;;;;;;;10.23;3.30;;;;;;;28.05;33.68;96333.03;5083648;28;20047;-74
2021/08/04 10:41:31;;;;;;;10.90;3.28;;;;;;;28.09;33.65;96333.66;5074342;28;20043;-77
2021/08/04 10:44:00;;;;;;;10.13;3.40;;;;;;;28.09;33.76;96331.88;5049394;28;20201;-76
2021/08/04 10:46:32;;;;;;;10.13;3.75;;;;;;;28.14;33.78;96335.00;5080383;28;20106;-76
2021/08/04 10:49:06;;;;;;;7.78;3.55;;;;;;;28.14;33.86;96335.00;5090913;28;20489;-75
2021/08/04 10:51:41;;;;;;;11.02;3.30;;;;;;;28.16;34.00;96330.50;5092215;28;20081;-77
2021/08/04 10:54:14;;;;;;;8.52;3.47;;;;;;;28.18;33.94;96327.72;5076698;28;20031;-75
2021/08/04 10:56:42;;;;;;;10.30;3.38;;;;;;;28.20;33.96;96330.25;5075921;28;20867;-76
2021/08/04 10:59:08;;;;;;;8.90;3.13;;;;;;;28.22;34.10;96328.38;5093963;27;20062;-74
2021/08/04 11:01:33;;;;;;;12.90;3.40;;;;;;;28.23;34.19;96327.41;5094166;28;20047;-75
2021/08/04 11:03:59;;;;;;;8.38;2.88;;;;;;;28.23;34.26;96330.06;5090830;28;20080;-74
2021/08/04 11:06:24;;;;;;;5.97;2.95;;;;;;;28.24;34.19;96329.09;5077183;28;20028;-74
2021/08/04 11:09:12;;;;;;;8.02;3.20;;;;;;;28.24;100.00;-9452.13;5088563;28;20404;-76
2021/08/04 11:12:02;;;;;;;8.27;3.38;;;;;;;28.24;34.19;96329.09;5090082;28;20032;-77
2021/08/04 11:15:24;;;;;;;8.48;3.20;;;;;;;28.24;34.19;96329.09;5096058;28;20038;-76
2021/08/04 11:18:06;;;;;;;7.60;3.22;;;;;;;28.24;34.19;96329.09;5085572;28;20035;-76
2021/08/04 11:21:33;;;;;;;8.40;3.45;;;;;;;-148.56;100.00;61375.16;5096389;28;20081;-75
2021/08/04 11:23:59;;;;;;;7.95;3.03;;;;;;;-148.56;100.00;61375.16;5084832;28;20423;-75
2021/08/04 11:27:32;;;;;;;6.75;3.03;;;;;;;-148.56;100.00;61375.16;5077262;28;20764;-76
2021/08/04 11:30:58;;;;;;;6.20;2.85;;;;;;;-148.56;100.00;61375.16;5069045;28;20035;-76
2021/08/04 11:34:23;;;;;;;6.95;2.83;;;;;;;28.24;100.00;84045.31;5084377;28;20035;-77
2021/08/04 11:36:49;;;;;;;8.32;2.92;;;;;;;28.40;34.38;96316.56;5092017;28;20022;-75
2021/08/04 11:39:56;;;;;;;10.05;2.90;;;;;;;-148.56;100.00;61375.16;5087002;28;20141;-74
2021/08/04 11:42:29;;;;;;;9.73;3.35;;;;;;;28.40;34.38;96316.56;5084365;28;20812;-76
2021/08/04 11:46:00;;;;;;;9.60;3.17;;;;;;;-148.56;100.00;61375.16;5093368;28;20056;-76
2021/08/04 11:49:52;;;;;;;5.47;2.65;;;;;;;-148.56;100.00;61375.16;5086231;28;20019;-76
2021/08/04 11:53:19;;;;;;;9.07;3.53;;;;;;;-148.56;100.00;61375.16;5078800;28;20046;-76
2021/08/04 11:55:47;;;;;;;8.23;3.17;;;;;;;28.40;34.38;96316.56;5093933;28;20059;-75
2021/08/04 11:59:11;;;;;;;5.47;2.60;;;;;;;-148.56;100.00;61375.16;5074175;28;20062;-74